sensor_id;sensor_type;location;lat;lon;timestamp;P1;durP1;ratioP1;P2;durP2;ratioP2
18574;SDS011;9417;16.484;102.872;2022-08-19T00:01:36;6.28;;;5.00;;
18574;SDS011;9417;16.484;102.872;2022-08-19T00:03:54;9.82;;;5.57;;
18574;SDS011;9417;16.484;102.872;2022-08-19T00:06:01;8.57;;;5.40;;
18574;SDS011;9417;16.484;102.872;2022-08-19T00:08:09;7.35;;;5.50;;
18574;SDS011;9417;16.484;102.872;2022-08-19T00:10:17;9.60;;;5.32;;
18574;SDS011;9417;16.484;102.872;2022-08-19T00:12:25;8.00;;;5.55;;
18574;SDS011;9417;16.484;102.872;2022-08-19T00:14:34;9.65;;;5.07;;
18574;SDS011;9417;16.484;102.872;2022-08-19T00:16:42;11.65;;;5.53;;
18574;SDS011;9417;16.484;102.872;2022-08-19T00:18:51;7.65;;;6.25;;
18574;SDS011;9417;16.484;102.872;2022-08-19T00:20:59;11.80;;;5.65;;
18574;SDS011;9417;16.484;102.872;2022-08-19T00:23:09;10.07;;;5.88;;
18574;SDS011;9417;16.484;102.872;2022-08-19T00:25:17;8.65;;;5.88;;
18574;SDS011;9417;16.484;102.872;2022-08-19T00:27:32;8.70;;;5.53;;
18574;SDS011;9417;16.484;102.872;2022-08-19T00:29:41;10.57;;;5.20;;
18574;SDS011;9417;16.484;102.872;2022-08-19T00:31:54;8.98;;;5.15;;
18574;SDS011;9417;16.484;102.872;2022-08-19T00:34:02;12.73;;;5.65;;
18574;SDS011;9417;16.484;102.872;2022-08-19T00:36:10;10.80;;;5.10;;
18574;SDS011;9417;16.484;102.872;2022-08-19T00:38:17;9.75;;;5.60;;
18574;SDS011;9417;16.484;102.872;2022-08-19T00:40:39;9.07;;;5.10;;
18574;SDS011;9417;16.484;102.872;2022-08-19T00:42:49;6.95;;;4.80;;
18574;SDS011;9417;16.484;102.872;2022-08-19T00:44:59;8.77;;;4.70;;
18574;SDS011;9417;16.484;102.872;2022-08-19T00:47:06;7.38;;;4.30;;
18574;SDS011;9417;16.484;102.872;2022-08-19T00:49:19;6.17;;;4.43;;
18574;SDS011;9417;16.484;102.872;2022-08-19T00:51:30;8.30;;;4.50;;
18574;SDS011;9417;16.484;102.872;2022-08-19T00:53:38;7.60;;;4.25;;
18574;SDS011;9417;16.484;102.872;2022-08-19T00:55:46;8.35;;;4.60;;
18574;SDS011;9417;16.484;102.872;2022-08-19T00:57:56;8.05;;;4.55;;
18574;SDS011;9417;16.484;102.872;2022-08-19T01:00:09;7.47;;;4.28;;
18574;SDS011;9417;16.484;102.872;2022-08-19T01:02:18;8.32;;;4.28;;
18574;SDS011;9417;16.484;102.872;2022-08-19T01:04:25;6.82;;;4.40;;
18574;SDS011;9417;16.484;102.872;2022-08-19T01:06:33;6.78;;;4.13;;
18574;SDS011;9417;16.484;102.872;2022-08-19T01:08:43;6.75;;;3.85;;
18574;SDS011;9417;16.484;102.872;2022-08-19T01:10:52;7.90;;;3.88;;
18574;SDS011;9417;16.484;102.872;2022-08-19T01:13:01;7.68;;;4.65;;
18574;SDS011;9417;16.484;102.872;2022-08-19T01:15:12;5.25;;;3.92;;
18574;SDS011;9417;16.484;102.872;2022-08-19T01:17:21;9.65;;;4.68;;
18574;SDS011;9417;16.484;102.872;2022-08-19T01:19:29;9.30;;;4.47;;
18574;SDS011;9417;16.484;102.872;2022-08-19T01:21:46;6.53;;;4.38;;
18574;SDS011;9417;16.484;102.872;2022-08-19T01:23:59;5.90;;;4.28;;
18574;SDS011;9417;16.484;102.872;2022-08-19T01:26:07;10.77;;;4.90;;
18574;SDS011;9417;16.484;102.872;2022-08-19T01:28:16;15.35;;;4.50;;
18574;SDS011;9417;16.484;102.872;2022-08-19T01:30:41;10.25;;;4.78;;
18574;SDS011;9417;16.484;102.872;2022-08-19T01:32:52;6.82;;;4.38;;
18574;SDS011;9417;16.484;102.872;2022-08-19T01:35:01;9.25;;;4.90;;
18574;SDS011;9417;16.484;102.872;2022-08-19T01:37:09;8.20;;;4.70;;
18574;SDS011;9417;16.484;102.872;2022-08-19T01:39:30;10.00;;;4.80;;
18574;SDS011;9417;16.484;102.872;2022-08-19T01:41:37;9.68;;;5.05;;
18574;SDS011;9417;16.484;102.872;2022-08-19T01:43:45;7.68;;;4.60;;
18574;SDS011;9417;16.484;102.872;2022-08-19T01:46:13;9.90;;;4.82;;
18574;SDS011;9417;16.484;102.872;2022-08-19T01:48:26;7.45;;;4.72;;
18574;SDS011;9417;16.484;102.872;2022-08-19T01:52:44;10.98;;;4.95;;
18574;SDS011;9417;16.484;102.872;2022-08-19T01:55:10;10.35;;;4.65;;
18574;SDS011;9417;16.484;102.872;2022-08-19T01:57:19;7.13;;;4.20;;
18574;SDS011;9417;16.484;102.872;2022-08-19T01:59:26;8.10;;;4.88;;
18574;SDS011;9417;16.484;102.872;2022-08-19T02:01:34;8.73;;;4.75;;
18574;SDS011;9417;16.484;102.872;2022-08-19T02:03:42;12.82;;;5.07;;
18574;SDS011;9417;16.484;102.872;2022-08-19T02:05:53;7.32;;;5.03;;
18574;SDS011;9417;16.484;102.872;2022-08-19T02:08:03;8.77;;;4.57;;
18574;SDS011;9417;16.484;102.872;2022-08-19T02:10:13;10.45;;;4.72;;
18574;SDS011;9417;16.484;102.872;2022-08-19T02:12:23;9.43;;;4.97;;
18574;SDS011;9417;16.484;102.872;2022-08-19T02:14:30;8.75;;;4.20;;
18574;SDS011;9417;16.484;102.872;2022-08-19T02:16:39;9.48;;;4.82;;
18574;SDS011;9417;16.484;102.872;2022-08-19T02:18:46;9.68;;;5.10;;
18574;SDS011;9417;16.484;102.872;2022-08-19T02:20:54;7.90;;;4.40;;
18574;SDS011;9417;16.484;102.872;2022-08-19T02:23:01;8.52;;;4.93;;
18574;SDS011;9417;16.484;102.872;2022-08-19T02:25:16;7.40;;;4.63;;
18574;SDS011;9417;16.484;102.872;2022-08-19T02:27:24;9.00;;;4.57;;
18574;SDS011;9417;16.484;102.872;2022-08-19T02:29:31;9.65;;;4.30;;
18574;SDS011;9417;16.484;102.872;2022-08-19T02:31:39;13.43;;;4.50;;
18574;SDS011;9417;16.484;102.872;2022-08-19T02:33:46;7.20;;;4.50;;
18574;SDS011;9417;16.484;102.872;2022-08-19T02:35:58;7.03;;;4.38;;
18574;SDS011;9417;16.484;102.872;2022-08-19T02:38:05;6.63;;;4.35;;
18574;SDS011;9417;16.484;102.872;2022-08-19T02:40:31;8.27;;;4.88;;
18574;SDS011;9417;16.484;102.872;2022-08-19T02:42:39;7.75;;;4.38;;
18574;SDS011;9417;16.484;102.872;2022-08-19T02:44:46;6.82;;;4.10;;
18574;SDS011;9417;16.484;102.872;2022-08-19T02:46:53;5.78;;;4.60;;
18574;SDS011;9417;16.484;102.872;2022-08-19T02:49:01;7.85;;;4.38;;
18574;SDS011;9417;16.484;102.872;2022-08-19T02:51:15;8.10;;;4.43;;
18574;SDS011;9417;16.484;102.872;2022-08-19T02:53:26;7.93;;;4.70;;
18574;SDS011;9417;16.484;102.872;2022-08-19T02:55:35;8.27;;;4.75;;
18574;SDS011;9417;16.484;102.872;2022-08-19T02:57:48;6.25;;;4.20;;
18574;SDS011;9417;16.484;102.872;2022-08-19T02:59:55;7.75;;;4.13;;
18574;SDS011;9417;16.484;102.872;2022-08-19T03:02:03;7.53;;;3.65;;
18574;SDS011;9417;16.484;102.872;2022-08-19T03:04:12;6.00;;;3.90;;
18574;SDS011;9417;16.484;102.872;2022-08-19T03:06:21;6.50;;;4.22;;
18574;SDS011;9417;16.484;102.872;2022-08-19T03:08:28;6.22;;;4.13;;
18574;SDS011;9417;16.484;102.872;2022-08-19T03:10:41;4.43;;;4.00;;
18574;SDS011;9417;16.484;102.872;2022-08-19T03:12:49;5.82;;;4.07;;
18574;SDS011;9417;16.484;102.872;2022-08-19T03:14:57;7.55;;;4.35;;
18574;SDS011;9417;16.484;102.872;2022-08-19T03:17:04;6.97;;;4.45;;
18574;SDS011;9417;16.484;102.872;2022-08-19T03:19:12;7.75;;;4.15;;
18574;SDS011;9417;16.484;102.872;2022-08-19T03:21:19;7.75;;;3.80;;
18574;SDS011;9417;16.484;102.872;2022-08-19T03:23:29;7.22;;;4.32;;
18574;SDS011;9417;16.484;102.872;2022-08-19T03:25:37;8.00;;;4.00;;
18574;SDS011;9417;16.484;102.872;2022-08-19T03:27:48;7.57;;;4.40;;
18574;SDS011;9417;16.484;102.872;2022-08-19T03:29:55;9.15;;;4.30;;
18574;SDS011;9417;16.484;102.872;2022-08-19T03:32:03;6.95;;;3.95;;
18574;SDS011;9417;16.484;102.872;2022-08-19T03:34:32;7.88;;;4.30;;
18574;SDS011;9417;16.484;102.872;2022-08-19T03:36:40;10.70;;;4.50;;
18574;SDS011;9417;16.484;102.872;2022-08-19T03:38:48;8.20;;;4.30;;
18574;SDS011;9417;16.484;102.872;2022-08-19T03:41:05;10.73;;;4.53;;
18574;SDS011;9417;16.484;102.872;2022-08-19T03:43:15;7.30;;;4.38;;
18574;SDS011;9417;16.484;102.872;2022-08-19T03:45:22;8.23;;;3.92;;
18574;SDS011;9417;16.484;102.872;2022-08-19T03:47:31;6.25;;;3.92;;
18574;SDS011;9417;16.484;102.872;2022-08-19T03:49:38;6.13;;;3.97;;
18574;SDS011;9417;16.484;102.872;2022-08-19T03:51:46;6.05;;;3.92;;
18574;SDS011;9417;16.484;102.872;2022-08-19T03:53:54;7.07;;;4.07;;
18574;SDS011;9417;16.484;102.872;2022-08-19T03:56:03;6.68;;;3.92;;
18574;SDS011;9417;16.484;102.872;2022-08-19T03:58:15;6.63;;;3.88;;
18574;SDS011;9417;16.484;102.872;2022-08-19T04:00:22;6.82;;;3.53;;
18574;SDS011;9417;16.484;102.872;2022-08-19T04:02:29;6.30;;;4.13;;
18574;SDS011;9417;16.484;102.872;2022-08-19T04:04:38;7.75;;;4.15;;
18574;SDS011;9417;16.484;102.872;2022-08-19T04:06:46;7.28;;;4.43;;
18574;SDS011;9417;16.484;102.872;2022-08-19T04:08:54;9.68;;;4.88;;
18574;SDS011;9417;16.484;102.872;2022-08-19T04:11:06;8.55;;;3.95;;
18574;SDS011;9417;16.484;102.872;2022-08-19T04:15:23;7.00;;;3.95;;
18574;SDS011;9417;16.484;102.872;2022-08-19T04:17:31;6.60;;;3.90;;
18574;SDS011;9417;16.484;102.872;2022-08-19T04:19:38;5.82;;;3.72;;
18574;SDS011;9417;16.484;102.872;2022-08-19T04:21:47;6.18;;;3.75;;
18574;SDS011;9417;16.484;102.872;2022-08-19T04:23:55;5.63;;;3.55;;
18574;SDS011;9417;16.484;102.872;2022-08-19T04:26:05;7.60;;;4.03;;
18574;SDS011;9417;16.484;102.872;2022-08-19T04:28:17;6.72;;;4.20;;
18574;SDS011;9417;16.484;102.872;2022-08-19T04:30:24;6.38;;;3.83;;
18574;SDS011;9417;16.484;102.872;2022-08-19T04:32:31;6.32;;;3.70;;
18574;SDS011;9417;16.484;102.872;2022-08-19T04:34:39;8.13;;;4.30;;
18574;SDS011;9417;16.484;102.872;2022-08-19T04:37:06;9.38;;;4.18;;
18574;SDS011;9417;16.484;102.872;2022-08-19T04:39:16;6.47;;;3.85;;
18574;SDS011;9417;16.484;102.872;2022-08-19T04:41:27;5.85;;;3.63;;
18574;SDS011;9417;16.484;102.872;2022-08-19T04:43:52;6.75;;;3.97;;
18574;SDS011;9417;16.484;102.872;2022-08-19T04:46:06;7.32;;;3.92;;
18574;SDS011;9417;16.484;102.872;2022-08-19T04:48:34;8.07;;;4.18;;
18574;SDS011;9417;16.484;102.872;2022-08-19T04:50:51;7.97;;;3.55;;
18574;SDS011;9417;16.484;102.872;2022-08-19T04:53:01;6.25;;;3.53;;
18574;SDS011;9417;16.484;102.872;2022-08-19T04:55:08;6.90;;;4.05;;
18574;SDS011;9417;16.484;102.872;2022-08-19T04:57:16;7.28;;;3.25;;
18574;SDS011;9417;16.484;102.872;2022-08-19T04:59:24;5.55;;;4.07;;
18574;SDS011;9417;16.484;102.872;2022-08-19T05:01:32;5.68;;;3.67;;
18574;SDS011;9417;16.484;102.872;2022-08-19T05:03:40;5.28;;;3.50;;
18574;SDS011;9417;16.484;102.872;2022-08-19T05:05:47;6.00;;;3.35;;
18574;SDS011;9417;16.484;102.872;2022-08-19T05:07:55;6.22;;;3.20;;
18574;SDS011;9417;16.484;102.872;2022-08-19T05:10:03;8.55;;;3.78;;
18574;SDS011;9417;16.484;102.872;2022-08-19T05:12:11;6.00;;;3.08;;
18574;SDS011;9417;16.484;102.872;2022-08-19T05:14:19;7.25;;;3.50;;
18574;SDS011;9417;16.484;102.872;2022-08-19T05:16:28;6.63;;;3.60;;
18574;SDS011;9417;16.484;102.872;2022-08-19T05:18:35;6.43;;;3.72;;
18574;SDS011;9417;16.484;102.872;2022-08-19T05:21:01;5.85;;;3.67;;
18574;SDS011;9417;16.484;102.872;2022-08-19T05:23:29;4.25;;;3.22;;
18574;SDS011;9417;16.484;102.872;2022-08-19T05:25:38;6.45;;;3.55;;
18574;SDS011;9417;16.484;102.872;2022-08-19T05:27:46;7.72;;;3.17;;
18574;SDS011;9417;16.484;102.872;2022-08-19T05:29:53;7.45;;;3.45;;
18574;SDS011;9417;16.484;102.872;2022-08-19T05:32:02;5.18;;;3.45;;
18574;SDS011;9417;16.484;102.872;2022-08-19T05:36:21;6.93;;;3.40;;
18574;SDS011;9417;16.484;102.872;2022-08-19T05:38:29;8.32;;;3.85;;
18574;SDS011;9417;16.484;102.872;2022-08-19T05:40:37;4.18;;;3.10;;
18574;SDS011;9417;16.484;102.872;2022-08-19T05:42:45;5.15;;;3.28;;
18574;SDS011;9417;16.484;102.872;2022-08-19T05:44:57;5.15;;;3.30;;
18574;SDS011;9417;16.484;102.872;2022-08-19T05:47:06;7.47;;;3.35;;
18574;SDS011;9417;16.484;102.872;2022-08-19T05:49:14;5.75;;;3.17;;
18574;SDS011;9417;16.484;102.872;2022-08-19T05:51:22;5.13;;;3.60;;
18574;SDS011;9417;16.484;102.872;2022-08-19T05:53:30;4.10;;;2.90;;
18574;SDS011;9417;16.484;102.872;2022-08-19T05:55:39;8.68;;;3.50;;
18574;SDS011;9417;16.484;102.872;2022-08-19T05:57:46;7.18;;;3.42;;
18574;SDS011;9417;16.484;102.872;2022-08-19T05:59:54;8.35;;;3.08;;
18574;SDS011;9417;16.484;102.872;2022-08-19T06:02:14;5.57;;;3.40;;
18574;SDS011;9417;16.484;102.872;2022-08-19T06:04:22;5.80;;;3.10;;
18574;SDS011;9417;16.484;102.872;2022-08-19T06:06:29;6.57;;;3.42;;
18574;SDS011;9417;16.484;102.872;2022-08-19T06:08:38;4.15;;;2.70;;
18574;SDS011;9417;16.484;102.872;2022-08-19T06:10:46;4.82;;;3.00;;
18574;SDS011;9417;16.484;102.872;2022-08-19T06:12:53;5.25;;;2.70;;
18574;SDS011;9417;16.484;102.872;2022-08-19T06:15:00;4.97;;;2.95;;
18574;SDS011;9417;16.484;102.872;2022-08-19T06:17:09;8.00;;;2.90;;
18574;SDS011;9417;16.484;102.872;2022-08-19T06:19:20;5.03;;;3.20;;
18574;SDS011;9417;16.484;102.872;2022-08-19T06:21:29;6.47;;;2.80;;
18574;SDS011;9417;16.484;102.872;2022-08-19T06:23:37;5.30;;;3.00;;
18574;SDS011;9417;16.484;102.872;2022-08-19T06:25:44;4.07;;;2.78;;
18574;SDS011;9417;16.484;102.872;2022-08-19T06:27:51;6.10;;;2.92;;
18574;SDS011;9417;16.484;102.872;2022-08-19T06:30:17;6.72;;;2.95;;
18574;SDS011;9417;16.484;102.872;2022-08-19T06:32:24;6.78;;;3.05;;
18574;SDS011;9417;16.484;102.872;2022-08-19T06:34:34;5.18;;;3.15;;
18574;SDS011;9417;16.484;102.872;2022-08-19T06:36:42;4.25;;;2.85;;
18574;SDS011;9417;16.484;102.872;2022-08-19T06:38:49;5.13;;;2.80;;
18574;SDS011;9417;16.484;102.872;2022-08-19T06:41:00;5.00;;;2.70;;
18574;SDS011;9417;16.484;102.872;2022-08-19T06:43:09;6.15;;;2.80;;
18574;SDS011;9417;16.484;102.872;2022-08-19T06:45:20;5.37;;;2.60;;
18574;SDS011;9417;16.484;102.872;2022-08-19T06:47:36;5.47;;;2.88;;
18574;SDS011;9417;16.484;102.872;2022-08-19T06:49:45;5.93;;;2.80;;
18574;SDS011;9417;16.484;102.872;2022-08-19T06:51:53;5.53;;;2.90;;
18574;SDS011;9417;16.484;102.872;2022-08-19T06:54:03;5.18;;;2.47;;
18574;SDS011;9417;16.484;102.872;2022-08-19T06:56:21;6.72;;;3.03;;
18574;SDS011;9417;16.484;102.872;2022-08-19T06:58:34;5.80;;;3.10;;
18574;SDS011;9417;16.484;102.872;2022-08-19T07:00:41;4.90;;;2.60;;
18574;SDS011;9417;16.484;102.872;2022-08-19T07:02:49;4.30;;;2.63;;
18574;SDS011;9417;16.484;102.872;2022-08-19T07:05:05;4.25;;;2.67;;
18574;SDS011;9417;16.484;102.872;2022-08-19T07:07:17;6.75;;;2.60;;
18574;SDS011;9417;16.484;102.872;2022-08-19T07:09:26;3.97;;;2.63;;
18574;SDS011;9417;16.484;102.872;2022-08-19T07:11:34;5.00;;;2.45;;
18574;SDS011;9417;16.484;102.872;2022-08-19T07:13:42;5.32;;;2.65;;
18574;SDS011;9417;16.484;102.872;2022-08-19T07:15:49;5.05;;;2.78;;
18574;SDS011;9417;16.484;102.872;2022-08-19T07:17:56;6.43;;;2.30;;
18574;SDS011;9417;16.484;102.872;2022-08-19T07:20:07;4.10;;;2.58;;
18574;SDS011;9417;16.484;102.872;2022-08-19T07:22:15;5.45;;;2.47;;
18574;SDS011;9417;16.484;102.872;2022-08-19T07:24:25;4.63;;;2.45;;
18574;SDS011;9417;16.484;102.872;2022-08-19T07:26:38;5.60;;;2.47;;
18574;SDS011;9417;16.484;102.872;2022-08-19T07:58:00;4.20;;;2.88;;
18574;SDS011;9417;16.484;102.872;2022-08-19T08:00:08;4.47;;;2.80;;
18574;SDS011;9417;16.484;102.872;2022-08-19T08:02:16;4.35;;;2.70;;
18574;SDS011;9417;16.484;102.872;2022-08-19T08:04:23;5.22;;;2.80;;
18574;SDS011;9417;16.484;102.872;2022-08-19T08:06:47;4.65;;;2.85;;
18574;SDS011;9417;16.484;102.872;2022-08-19T08:09:11;5.03;;;2.97;;
18574;SDS011;9417;16.484;102.872;2022-08-19T08:11:26;4.55;;;2.58;;
18574;SDS011;9417;16.484;102.872;2022-08-19T08:13:35;5.32;;;2.53;;
18574;SDS011;9417;16.484;102.872;2022-08-19T08:15:43;5.13;;;2.72;;
18574;SDS011;9417;16.484;102.872;2022-08-19T08:17:54;4.43;;;2.85;;
18574;SDS011;9417;16.484;102.872;2022-08-19T08:20:02;6.20;;;3.05;;
18574;SDS011;9417;16.484;102.872;2022-08-19T08:22:13;6.03;;;3.08;;
18574;SDS011;9417;16.484;102.872;2022-08-19T08:24:49;4.55;;;2.78;;
18574;SDS011;9417;16.484;102.872;2022-08-19T08:26:57;5.82;;;2.70;;
18574;SDS011;9417;16.484;102.872;2022-08-19T08:29:14;4.45;;;2.72;;
18574;SDS011;9417;16.484;102.872;2022-08-19T08:31:23;4.93;;;2.72;;
18574;SDS011;9417;16.484;102.872;2022-08-19T08:33:30;7.53;;;2.80;;
18574;SDS011;9417;16.484;102.872;2022-08-19T08:35:38;5.30;;;2.70;;
18574;SDS011;9417;16.484;102.872;2022-08-19T08:37:47;4.72;;;2.78;;
18574;SDS011;9417;16.484;102.872;2022-08-19T08:39:57;5.28;;;2.72;;
18574;SDS011;9417;16.484;102.872;2022-08-19T08:42:10;6.90;;;3.05;;
18574;SDS011;9417;16.484;102.872;2022-08-19T08:44:26;5.53;;;2.78;;
18574;SDS011;9417;16.484;102.872;2022-08-19T08:46:48;5.22;;;2.85;;
18574;SDS011;9417;16.484;102.872;2022-08-19T08:49:00;5.88;;;2.58;;
18574;SDS011;9417;16.484;102.872;2022-08-19T08:51:14;6.32;;;3.58;;
18574;SDS011;9417;16.484;102.872;2022-08-19T08:53:24;5.68;;;4.10;;
18574;SDS011;9417;16.484;102.872;2022-08-19T08:55:36;8.45;;;4.45;;
18574;SDS011;9417;16.484;102.872;2022-08-19T08:57:48;6.82;;;3.30;;
18574;SDS011;9417;16.484;102.872;2022-08-19T09:00:03;5.43;;;2.58;;
18574;SDS011;9417;16.484;102.872;2022-08-19T09:02:17;6.45;;;3.05;;
18574;SDS011;9417;16.484;102.872;2022-08-19T09:04:24;5.00;;;2.80;;
18574;SDS011;9417;16.484;102.872;2022-08-19T09:06:34;3.95;;;2.65;;
18574;SDS011;9417;16.484;102.872;2022-08-19T09:08:48;3.63;;;2.75;;
18574;SDS011;9417;16.484;102.872;2022-08-19T09:11:06;7.45;;;3.22;;
18574;SDS011;9417;16.484;102.872;2022-08-19T09:13:17;7.50;;;2.72;;
18574;SDS011;9417;16.484;102.872;2022-08-19T09:15:38;5.40;;;2.87;;
18574;SDS011;9417;16.484;102.872;2022-08-19T09:17:49;7.55;;;3.40;;
18574;SDS011;9417;16.484;102.872;2022-08-19T09:19:57;5.90;;;3.17;;
18574;SDS011;9417;16.484;102.872;2022-08-19T09:22:10;6.25;;;3.08;;
18574;SDS011;9417;16.484;102.872;2022-08-19T09:24:27;5.40;;;3.15;;
18574;SDS011;9417;16.484;102.872;2022-08-19T09:26:34;9.60;;;3.22;;
18574;SDS011;9417;16.484;102.872;2022-08-19T09:28:53;5.95;;;3.13;;
18574;SDS011;9417;16.484;102.872;2022-08-19T09:31:03;5.85;;;2.78;;
18574;SDS011;9417;16.484;102.872;2022-08-19T09:33:11;10.25;;;3.80;;
18574;SDS011;9417;16.484;102.872;2022-08-19T09:35:19;7.10;;;3.15;;
18574;SDS011;9417;16.484;102.872;2022-08-19T09:37:30;7.93;;;3.58;;
18574;SDS011;9417;16.484;102.872;2022-08-19T09:39:37;8.63;;;3.03;;
18574;SDS011;9417;16.484;102.872;2022-08-19T09:41:46;9.02;;;3.15;;
18574;SDS011;9417;16.484;102.872;2022-08-19T09:43:55;7.13;;;3.25;;
18574;SDS011;9417;16.484;102.872;2022-08-19T09:46:10;5.03;;;3.33;;
18574;SDS011;9417;16.484;102.872;2022-08-19T09:48:19;9.00;;;3.83;;
18574;SDS011;9417;16.484;102.872;2022-08-19T09:50:27;9.18;;;4.65;;
18574;SDS011;9417;16.484;102.872;2022-08-19T09:52:37;7.85;;;4.43;;
18574;SDS011;9417;16.484;102.872;2022-08-19T09:54:58;9.27;;;4.57;;
18574;SDS011;9417;16.484;102.872;2022-08-19T09:57:09;9.63;;;4.50;;
18574;SDS011;9417;16.484;102.872;2022-08-19T09:59:17;8.02;;;4.40;;
18574;SDS011;9417;16.484;102.872;2022-08-19T10:01:26;14.13;;;5.20;;
18574;SDS011;9417;16.484;102.872;2022-08-19T10:03:39;20.58;;;8.85;;
18574;SDS011;9417;16.484;102.872;2022-08-19T10:05:46;21.42;;;12.02;;
18574;SDS011;9417;16.484;102.872;2022-08-19T10:07:57;27.15;;;15.95;;
18574;SDS011;9417;16.484;102.872;2022-08-19T10:10:15;17.33;;;9.95;;
18574;SDS011;9417;16.484;102.872;2022-08-19T10:12:23;11.90;;;6.88;;
18574;SDS011;9417;16.484;102.872;2022-08-19T10:14:31;14.70;;;7.93;;
18574;SDS011;9417;16.484;102.872;2022-08-19T10:16:42;14.70;;;7.50;;
18574;SDS011;9417;16.484;102.872;2022-08-19T10:18:50;13.45;;;7.80;;
18574;SDS011;9417;16.484;102.872;2022-08-19T10:21:04;11.77;;;6.43;;
18574;SDS011;9417;16.484;102.872;2022-08-19T10:23:13;9.85;;;5.18;;
18574;SDS011;9417;16.484;102.872;2022-08-19T10:25:21;10.60;;;3.90;;
18574;SDS011;9417;16.484;102.872;2022-08-19T10:27:31;11.93;;;4.55;;
18574;SDS011;9417;16.484;102.872;2022-08-19T10:29:41;20.83;;;12.75;;
18574;SDS011;9417;16.484;102.872;2022-08-19T10:31:50;24.35;;;14.15;;
18574;SDS011;9417;16.484;102.872;2022-08-19T10:34:03;34.75;;;18.48;;
18574;SDS011;9417;16.484;102.872;2022-08-19T10:36:14;12.95;;;9.15;;
18574;SDS011;9417;16.484;102.872;2022-08-19T10:38:24;20.20;;;8.27;;
18574;SDS011;9417;16.484;102.872;2022-08-19T10:40:33;10.70;;;6.43;;
18574;SDS011;9417;16.484;102.872;2022-08-19T10:42:40;11.45;;;6.40;;
18574;SDS011;9417;16.484;102.872;2022-08-19T10:44:48;10.13;;;6.00;;
18574;SDS011;9417;16.484;102.872;2022-08-19T10:46:57;10.85;;;5.97;;
18574;SDS011;9417;16.484;102.872;2022-08-19T10:49:04;10.55;;;6.57;;
18574;SDS011;9417;16.484;102.872;2022-08-19T10:51:12;11.27;;;6.20;;
18574;SDS011;9417;16.484;102.872;2022-08-19T10:53:37;11.10;;;6.13;;
18574;SDS011;9417;16.484;102.872;2022-08-19T10:55:44;10.13;;;5.30;;
18574;SDS011;9417;16.484;102.872;2022-08-19T10:58:12;10.63;;;5.10;;
18574;SDS011;9417;16.484;102.872;2022-08-19T11:00:20;8.32;;;5.55;;
18574;SDS011;9417;16.484;102.872;2022-08-19T11:02:30;9.38;;;5.88;;
18574;SDS011;9417;16.484;102.872;2022-08-19T11:04:38;13.00;;;6.32;;
18574;SDS011;9417;16.484;102.872;2022-08-19T11:06:48;10.73;;;6.32;;
18574;SDS011;9417;16.484;102.872;2022-08-19T11:08:56;9.60;;;6.55;;
18574;SDS011;9417;16.484;102.872;2022-08-19T11:11:04;19.13;;;11.85;;
18574;SDS011;9417;16.484;102.872;2022-08-19T11:13:12;30.00;;;16.67;;
18574;SDS011;9417;16.484;102.872;2022-08-19T11:15:19;22.88;;;15.00;;
18574;SDS011;9417;16.484;102.872;2022-08-19T11:17:28;20.80;;;12.38;;
18574;SDS011;9417;16.484;102.872;2022-08-19T11:19:37;16.55;;;9.57;;
18574;SDS011;9417;16.484;102.872;2022-08-19T11:21:45;14.55;;;9.32;;
18574;SDS011;9417;16.484;102.872;2022-08-19T11:23:59;14.15;;;9.10;;
18574;SDS011;9417;16.484;102.872;2022-08-19T11:26:07;14.80;;;9.50;;
18574;SDS011;9417;16.484;102.872;2022-08-19T11:28:15;18.05;;;8.00;;
18574;SDS011;9417;16.484;102.872;2022-08-19T11:30:22;14.02;;;9.85;;
18574;SDS011;9417;16.484;102.872;2022-08-19T11:32:31;15.05;;;9.15;;
18574;SDS011;9417;16.484;102.872;2022-08-19T11:34:39;13.10;;;8.25;;
18574;SDS011;9417;16.484;102.872;2022-08-19T11:36:46;14.60;;;8.23;;
18574;SDS011;9417;16.484;102.872;2022-08-19T11:38:54;11.13;;;7.35;;
18574;SDS011;9417;16.484;102.872;2022-08-19T11:41:03;10.57;;;6.80;;
18574;SDS011;9417;16.484;102.872;2022-08-19T11:43:11;10.05;;;6.65;;
18574;SDS011;9417;16.484;102.872;2022-08-19T11:45:18;12.77;;;6.18;;
18574;SDS011;9417;16.484;102.872;2022-08-19T11:47:25;8.50;;;4.75;;
18574;SDS011;9417;16.484;102.872;2022-08-19T11:49:34;9.07;;;4.65;;
18574;SDS011;9417;16.484;102.872;2022-08-19T11:51:42;7.75;;;5.13;;
18574;SDS011;9417;16.484;102.872;2022-08-19T11:53:49;7.78;;;4.60;;
18574;SDS011;9417;16.484;102.872;2022-08-19T11:55:57;9.48;;;4.93;;
18574;SDS011;9417;16.484;102.872;2022-08-19T11:58:04;9.68;;;5.15;;
18574;SDS011;9417;16.484;102.872;2022-08-19T12:00:20;9.38;;;4.78;;
18574;SDS011;9417;16.484;102.872;2022-08-19T12:02:28;7.15;;;4.47;;
18574;SDS011;9417;16.484;102.872;2022-08-19T12:04:37;10.65;;;4.57;;
18574;SDS011;9417;16.484;102.872;2022-08-19T12:06:44;8.07;;;4.63;;
18574;SDS011;9417;16.484;102.872;2022-08-19T12:08:51;13.70;;;5.13;;
18574;SDS011;9417;16.484;102.872;2022-08-19T12:10:58;7.88;;;4.07;;
18574;SDS011;9417;16.484;102.872;2022-08-19T12:13:06;7.30;;;4.28;;
18574;SDS011;9417;16.484;102.872;2022-08-19T12:15:13;8.45;;;4.22;;
18574;SDS011;9417;16.484;102.872;2022-08-19T12:17:21;9.77;;;5.20;;
18574;SDS011;9417;16.484;102.872;2022-08-19T12:19:29;11.45;;;5.93;;
18574;SDS011;9417;16.484;102.872;2022-08-19T12:21:38;9.35;;;5.50;;
18574;SDS011;9417;16.484;102.872;2022-08-19T12:23:46;8.63;;;5.38;;
18574;SDS011;9417;16.484;102.872;2022-08-19T12:25:57;8.93;;;5.22;;
18574;SDS011;9417;16.484;102.872;2022-08-19T12:28:05;8.98;;;5.55;;
18574;SDS011;9417;16.484;102.872;2022-08-19T12:30:13;10.38;;;5.30;;
18574;SDS011;9417;16.484;102.872;2022-08-19T12:32:21;12.20;;;6.38;;
18574;SDS011;9417;16.484;102.872;2022-08-19T12:34:30;9.95;;;5.13;;
18574;SDS011;9417;16.484;102.872;2022-08-19T12:36:39;8.88;;;5.65;;
18574;SDS011;9417;16.484;102.872;2022-08-19T12:38:47;10.35;;;5.53;;
18574;SDS011;9417;16.484;102.872;2022-08-19T12:40:54;8.63;;;4.80;;
18574;SDS011;9417;16.484;102.872;2022-08-19T12:43:02;11.60;;;4.97;;
18574;SDS011;9417;16.484;102.872;2022-08-19T12:45:10;9.38;;;4.95;;
18574;SDS011;9417;16.484;102.872;2022-08-19T12:47:18;9.10;;;4.88;;
18574;SDS011;9417;16.484;102.872;2022-08-19T12:49:27;13.73;;;6.60;;
18574;SDS011;9417;16.484;102.872;2022-08-19T12:51:56;12.95;;;7.43;;
18574;SDS011;9417;16.484;102.872;2022-08-19T12:54:04;15.75;;;7.60;;
18574;SDS011;9417;16.484;102.872;2022-08-19T12:56:11;11.07;;;6.93;;
18574;SDS011;9417;16.484;102.872;2022-08-19T12:58:24;24.92;;;15.00;;
18574;SDS011;9417;16.484;102.872;2022-08-19T13:00:32;25.83;;;16.02;;
18574;SDS011;9417;16.484;102.872;2022-08-19T13:02:40;28.65;;;17.30;;
18574;SDS011;9417;16.484;102.872;2022-08-19T13:04:49;16.48;;;10.80;;
18574;SDS011;9417;16.484;102.872;2022-08-19T13:06:58;16.02;;;9.25;;
18574;SDS011;9417;16.484;102.872;2022-08-19T13:09:05;15.95;;;8.20;;
18574;SDS011;9417;16.484;102.872;2022-08-19T13:11:13;20.35;;;9.38;;
18574;SDS011;9417;16.484;102.872;2022-08-19T13:13:22;16.52;;;10.30;;
18574;SDS011;9417;16.484;102.872;2022-08-19T13:15:29;14.57;;;8.60;;
18574;SDS011;9417;16.484;102.872;2022-08-19T13:17:40;14.45;;;7.43;;
18574;SDS011;9417;16.484;102.872;2022-08-19T13:19:47;12.20;;;7.30;;
18574;SDS011;9417;16.484;102.872;2022-08-19T13:21:54;12.10;;;7.18;;
18574;SDS011;9417;16.484;102.872;2022-08-19T13:24:03;14.57;;;7.55;;
18574;SDS011;9417;16.484;102.872;2022-08-19T13:26:11;11.55;;;7.60;;